This is the latest recevied weather packets stored in our database for station/object K2RMB. If no packets are shown the sender has not sent any weather packets the latest 1 day(s).
| Time | Temp. | Humidity | Pressure | Rain* | Wind** | Luminosity | Snow |
|---|---|---|---|---|---|---|---|
| 1778013242 | 26.11° C | 34% | 1005.5 hPa | 0 mm | 0.89 m/s, 24° | 529 W/m² | - |
| 1778012938 | 25.56° C | 38% | 1005.5 hPa | 0 mm | 0 m/s | 454 W/m² | - |
| 1778012635 | 25.56° C | 37% | 1005.8 hPa | 0 mm | 2.24 m/s, 24° | 227 W/m² | - |
| 1778012331 | 26.11° C | 36% | 1006.2 hPa | 0 mm | 1.79 m/s, 36° | 225 W/m² | - |
| 1778012029 | 26.67° C | 35% | 1005.8 hPa | 0 mm | 2.68 m/s, 24° | 508 W/m² | - |
| 1778011727 | 26.11° C | 36% | 1005.8 hPa | 0 mm | 2.24 m/s, 18° | 378 W/m² | - |
| 1778011424 | 26.11° C | 34% | 1005.8 hPa | 0 mm | 1.79 m/s, 24° | 520 W/m² | - |
| 1778011119 | 26.11° C | 37% | 1005.8 hPa | 0 mm | 3.13 m/s, 24° | 527 W/m² | - |
| 1778010817 | 26.67° C | 37% | 1005.8 hPa | 0 mm | 0.45 m/s, 30° | 506 W/m² | - |
| 1778010513 | 26.11° C | 38% | 1005.8 hPa | 0 mm | 0 m/s | 561 W/m² | - |
| 1778010211 | 25.56° C | 36% | 1005.8 hPa | 0 mm | 2.68 m/s, 42° | 570 W/m² | - |
| 1778009906 | 25.56° C | 37% | 1006.2 hPa | 0 mm | 3.13 m/s, 36° | 220 W/m² | - |
| 1778009604 | 26.67° C | 36% | 1006.2 hPa | 0 mm | 0 m/s | 227 W/m² | - |
| 1778009302 | 26.11° C | 34% | 1005.8 hPa | 0 mm | 2.24 m/s, 12° | 630 W/m² | - |
| 1778009000 | 25.56° C | 36% | 1005.8 hPa | 0 mm | 3.58 m/s, 348° | 710 W/m² | - |
| 1778008697 | 26.67° C | 35% | 1006.2 hPa | 0 mm | 0.89 m/s, 24° | 281 W/m² | - |
| 1778008395 | 26.11° C | 38% | 1006.2 hPa | 0 mm | 2.68 m/s, 18° | 688 W/m² | - |
| 1778008092 | 26.11° C | 36% | 1006.2 hPa | 0 mm | 0.89 m/s, 18° | 565 W/m² | - |
| 1778007787 | 26.67° C | 36% | 1006.2 hPa | 0 mm | 0.89 m/s, 30° | 265 W/m² | - |
| 1778007483 | 26.67° C | 33% | 1006.2 hPa | 0 mm | 0.89 m/s, 36° | 799 W/m² | - |
| 1778007180 | 26.11° C | 34% | 1006.2 hPa | 0 mm | 2.24 m/s, 29° | 845 W/m² | - |
| 1778006876 | 26.67° C | 35% | 1006.2 hPa | 0 mm | 1.34 m/s, 12° | 865 W/m² | - |
| 1778006573 | 26.67° C | 38% | 1006.2 hPa | 0 mm | 0.89 m/s, 48° | 831 W/m² | - |
| 1778006270 | 26.67° C | 34% | 1006.2 hPa | 0 mm | 0.89 m/s, 42° | 832 W/m² | - |
| 1778005967 | 26.67° C | 35% | 1006.2 hPa | 0 mm | 2.68 m/s, 18° | 422 W/m² | - |
* Rain latest hour (hover to see other rain measurements)
** Current wind speed in m/s (hover to see current wind gust speed)